Terminal Aerodrome Forecast
Issued by NWS

Home | Current Version | Previous Version | Text Only | Print | Product List | Glossary On
Versions: 1 2 3 4 5 6 7 8 9 10 11 12 13 14 15 16 17 18 19
000
FTUS46 KSGX 251200 AAA
TAFCRQ
TAF AMD
KCRQ 251235Z 2513/2612 VRB04KT P6SM FEW002 BKN080
     FM251800 25009KT P6SM FEW006
     FM260200 VRB03KT P6SM BKN010
     FM260900 VRB03KT P6SM OVC015=

USA.gov is the U.S. government's official web portal to all federal, state and local government web resources and services.